F/V Mare Liberum — FVHW — position and weather

sailwx.info

Track history (hours):
 
Tides and Currents Weather Stations Pressure Air Temp Water Temp Dewpoint Dewpoint Depression Visibility Wind Speed Wind Dir Waves Ship Positions

F/V Mare Liberum

Last reported at 2017-Jan-24 07:06 UTC. Time now 2017-Jan-24 09:01 UTC.
Position N 46°33' W 002°19'.

Length 21 m.

Type: Fishing. MMSI: 227426000.

Date/timePositionNaut miles runAvg speedWind from/ knotsBaromVisibWave heightAir tempDewpointWater temp
2017-Jan-24 07:06N 46°33' W 002°19'3 1.5
2017-Jan-24 05:20N 46°31' W 002°20'1 1.1
2017-Jan-24 04:33N 46°30' W 002°22'1 0.6
2017-Jan-24 03:33N 46°31' W 002°22'31 1.8
2017-Jan-23 10:31N 47°01' W 002°18'0 0.0
2017-Jan-23 09:33N 47°01' W 002°18'0 0.1
2017-Jan-23 08:33N 47°02' W 002°18'6 6.0
2017-Jan-23 07:33N 46°57' W 002°24'8 8.5
2017-Jan-23 06:33N 46°49' W 002°25'8 8.3
2017-Jan-23 05:33N 46°40' W 002°24'9 6.2
2017-Jan-23 04:05N 46°31' W 002°21'1 0.8
2017-Jan-23 03:22N 46°32' W 002°22'2 1.9
2017-Jan-23 02:31N 46°30' W 002°21'1 0.9
2017-Jan-23 01:32N 46°31' W 002°21'2 0.5
2017-Jan-22 22:28N 46°30' W 002°20'0 0.0
2017-Jan-22 20:16N 46°30' W 002°20'0 0.0
2017-Jan-22 14:29N 46°30' W 002°20'2 2.2
2017-Jan-22 13:24N 46°32' W 002°22'2 2.1
2017-Jan-22 12:32N 46°30' W 002°21'1 0.9
2017-Jan-22 11:33N 46°30' W 002°20'1 0.6
2017-Jan-22 10:33N 46°30' W 002°21'2 2.0
2017-Jan-22 09:33N 46°31' W 002°23'0 0.5
2017-Jan-22 08:33N 46°31' W 002°22'0 0.3
2017-Jan-22 07:24N 46°31' W 002°22'0 0.5
2017-Jan-22 06:33N 46°31' W 002°22'0 0.2
2017-Jan-22 05:33N 46°31' W 002°22'0 0.1
2017-Jan-22 04:32N 46°31' W 002°21'0 0.3
2017-Jan-22 03:33N 46°31' W 002°21'1 0.5
2017-Jan-22 02:05N 46°30' W 002°20'1 1.7
2017-Jan-22 01:33N 46°30' W 002°20'0 0.0
2017-Jan-22 00:33N 46°30' W 002°20'0 0.0
2017-Jan-21 23:33N 46°30' W 002°20'0 0.0
2017-Jan-21 22:33N 46°30' W 002°20'0 0.0
2017-Jan-21 21:33N 46°30' W 002°20'0 0.0
2017-Jan-21 20:32N 46°30' W 002°20'0 0.0
2017-Jan-21 19:33N 46°30' W 002°20'0 0.0
2017-Jan-21 18:29N 46°30' W 002°20'0 0.0
2017-Jan-21 17:32N 46°30' W 002°20'0 0.0
2017-Jan-21 16:33N 46°30' W 002°20'0 0.0
2017-Jan-21 15:31N 46°30' W 002°20'0 0.0
2017-Jan-21 13:12N 46°30' W 002°20'1 0.8
2017-Jan-21 12:14N 46°30' W 002°20'1 1.7
2017-Jan-21 11:33N 46°31' W 002°21'1 0.8
2017-Jan-21 10:33N 46°30' W 002°22'4 3.8
2017-Jan-21 09:33N 46°29' W 002°27'1 1.5
2017-Jan-21 08:33N 46°29' W 002°29'2 2.3
2017-Jan-21 07:33N 46°31' W 002°30'0 0.2
2017-Jan-21 06:31N 46°31' W 002°30'1 1.2
2017-Jan-21 05:33N 46°30' W 002°30'2 1.9
2017-Jan-21 04:33N 46°32' W 002°31'1 1.3
2017-Jan-21 03:32N 46°30' W 002°30'1 0.7
2017-Jan-21 02:33N 46°31' W 002°31'1 1.5
2017-Jan-21 01:33N 46°30' W 002°30'0 0.0
2017-Jan-21 00:26N 46°30' W 002°30'0 0.0
2017-Jan-20 23:21N 46°30' W 002°30'0 0.0
2017-Jan-20 22:33N 46°30' W 002°30'0 0.0
2017-Jan-20 21:26N 46°30' W 002°30'0 0.0
2017-Jan-20 20:27N 46°30' W 002°30'0 0.0
2017-Jan-20 18:12N 46°30' W 002°30'0 0.0
2017-Jan-20 15:08N 46°30' W 002°30'  
2017-Jan-18 05:11N 47°00' W 002°21'2 3.4
2017-Jan-18 04:29N 47°02' W 002°18'0 0.1
2017-Jan-18 03:33N 47°01' W 002°18'0 0.0
2017-Jan-18 02:33N 47°01' W 002°18'0 0.0
2017-Jan-18 01:33N 47°01' W 002°18'0 0.0
2017-Jan-18 00:33N 47°01' W 002°18'0 0.0
2017-Jan-17 23:33N 47°01' W 002°18'0 0.0
2017-Jan-17 22:33N 47°01' W 002°18'0 0.0
2017-Jan-17 21:33N 47°01' W 002°18'0 0.0
2017-Jan-17 20:33N 47°01' W 002°18'0 0.0
2017-Jan-17 19:33N 47°01' W 002°18'0 0.0
2017-Jan-17 18:33N 47°01' W 002°18'0 0.0
2017-Jan-17 17:33N 47°01' W 002°18'0 0.0
2017-Jan-17 16:32N 47°01' W 002°18'0 0.0
2017-Jan-17 15:17N 47°01' W 002°18'0 0.0
2017-Jan-17 14:06N 47°01' W 002°18'0 0.0
2017-Jan-17 13:31N 47°01' W 002°18'0 0.0
2017-Jan-17 12:30N 47°01' W 002°18'0 0.0
2017-Jan-17 11:33N 47°01' W 002°18'0 0.0
2017-Jan-17 10:32N 47°01' W 002°18'0 0.0
2017-Jan-17 09:33N 47°01' W 002°18'0 0.0
2017-Jan-17 08:33N 47°01' W 002°18'0 0.0
2017-Jan-17 07:33N 47°01' W 002°18'0 0.0
2017-Jan-17 06:31N 47°01' W 002°18'0 0.0
2017-Jan-17 05:33N 47°01' W 002°18'0 0.0
2017-Jan-17 04:32N 47°01' W 002°18'0 0.0
2017-Jan-17 03:32N 47°01' W 002°18'0 0.0
2017-Jan-17 02:33N 47°01' W 002°18'0 0.0
2017-Jan-17 01:33N 47°01' W 002°18'0 0.0
2017-Jan-17 00:31N 47°01' W 002°18'0 0.0
2017-Jan-16 23:28N 47°01' W 002°18'0 0.0
2017-Jan-16 22:33N 47°01' W 002°18'0 0.0
2017-Jan-16 21:33N 47°01' W 002°18'0 0.0
2017-Jan-16 20:33N 47°01' W 002°18'0 0.0
2017-Jan-16 19:33N 47°01' W 002°18'0 0.0
2017-Jan-16 18:33N 47°01' W 002°18'0 0.0
2017-Jan-16 17:33N 47°01' W 002°18'0 0.0
2017-Jan-16 16:33N 47°01' W 002°18'0 0.0
2017-Jan-16 15:33N 47°01' W 002°18'  
Track history (hours):
 
Tides and Currents Weather Stations Pressure Air Temp Water Temp Dewpoint Dewpoint Depression Visibility Wind Speed Wind Dir Waves Ship Positions

F/V Mare Liberum

Last reported at 2017-Jan-24 07:06 UTC. Time now 2017-Jan-24 09:01 UTC.
Position N 46°33' W 002°19'.

Length 21 m.

Type: Fishing. MMSI: 227426000.

Date/timePositionNaut miles runAvg speedWind from/ knotsBaromVisibWave heightAir tempDewpointWater temp
2017-Jan-24 07:06N 46°33' W 002°19'3 1.5
2017-Jan-24 05:20N 46°31' W 002°20'1 1.1
2017-Jan-24 04:33N 46°30' W 002°22'1 0.6
2017-Jan-24 03:33N 46°31' W 002°22'31 1.8
2017-Jan-23 10:31N 47°01' W 002°18'0 0.0
2017-Jan-23 09:33N 47°01' W 002°18'0 0.1
2017-Jan-23 08:33N 47°02' W 002°18'6 6.0
2017-Jan-23 07:33N 46°57' W 002°24'8 8.5
2017-Jan-23 06:33N 46°49' W 002°25'8 8.3
2017-Jan-23 05:33N 46°40' W 002°24'9 6.2
2017-Jan-23 04:05N 46°31' W 002°21'1 0.8
2017-Jan-23 03:22N 46°32' W 002°22'2 1.9
2017-Jan-23 02:31N 46°30' W 002°21'1 0.9
2017-Jan-23 01:32N 46°31' W 002°21'2 0.5
2017-Jan-22 22:28N 46°30' W 002°20'0 0.0
2017-Jan-22 20:16N 46°30' W 002°20'0 0.0
2017-Jan-22 14:29N 46°30' W 002°20'2 2.2
2017-Jan-22 13:24N 46°32' W 002°22'2 2.1
2017-Jan-22 12:32N 46°30' W 002°21'1 0.9
2017-Jan-22 11:33N 46°30' W 002°20'1 0.6
2017-Jan-22 10:33N 46°30' W 002°21'2 2.0
2017-Jan-22 09:33N 46°31' W 002°23'0 0.5
2017-Jan-22 08:33N 46°31' W 002°22'0 0.3
2017-Jan-22 07:24N 46°31' W 002°22'0 0.5
2017-Jan-22 06:33N 46°31' W 002°22'0 0.2
2017-Jan-22 05:33N 46°31' W 002°22'0 0.1
2017-Jan-22 04:32N 46°31' W 002°21'0 0.3
2017-Jan-22 03:33N 46°31' W 002°21'1 0.5
2017-Jan-22 02:05N 46°30' W 002°20'1 1.7
2017-Jan-22 01:33N 46°30' W 002°20'0 0.0
2017-Jan-22 00:33N 46°30' W 002°20'0 0.0
2017-Jan-21 23:33N 46°30' W 002°20'0 0.0
2017-Jan-21 22:33N 46°30' W 002°20'0 0.0
2017-Jan-21 21:33N 46°30' W 002°20'0 0.0
2017-Jan-21 20:32N 46°30' W 002°20'0 0.0
2017-Jan-21 19:33N 46°30' W 002°20'0 0.0
2017-Jan-21 18:29N 46°30' W 002°20'0 0.0
2017-Jan-21 17:32N 46°30' W 002°20'0 0.0
2017-Jan-21 16:33N 46°30' W 002°20'0 0.0
2017-Jan-21 15:31N 46°30' W 002°20'0 0.0
2017-Jan-21 13:12N 46°30' W 002°20'1 0.8
2017-Jan-21 12:14N 46°30' W 002°20'1 1.7
2017-Jan-21 11:33N 46°31' W 002°21'1 0.8
2017-Jan-21 10:33N 46°30' W 002°22'4 3.8
2017-Jan-21 09:33N 46°29' W 002°27'1 1.5
2017-Jan-21 08:33N 46°29' W 002°29'2 2.3
2017-Jan-21 07:33N 46°31' W 002°30'0 0.2
2017-Jan-21 06:31N 46°31' W 002°30'1 1.2
2017-Jan-21 05:33N 46°30' W 002°30'2 1.9
2017-Jan-21 04:33N 46°32' W 002°31'1 1.3
2017-Jan-21 03:32N 46°30' W 002°30'1 0.7
2017-Jan-21 02:33N 46°31' W 002°31'1 1.5
2017-Jan-21 01:33N 46°30' W 002°30'0 0.0
2017-Jan-21 00:26N 46°30' W 002°30'0 0.0
2017-Jan-20 23:21N 46°30' W 002°30'0 0.0
2017-Jan-20 22:33N 46°30' W 002°30'0 0.0
2017-Jan-20 21:26N 46°30' W 002°30'0 0.0
2017-Jan-20 20:27N 46°30' W 002°30'0 0.0
2017-Jan-20 18:12N 46°30' W 002°30'0 0.0
2017-Jan-20 15:08N 46°30' W 002°30'  
2017-Jan-18 05:11N 47°00' W 002°21'2 3.4
2017-Jan-18 04:29N 47°02' W 002°18'0 0.1
2017-Jan-18 03:33N 47°01' W 002°18'0 0.0
2017-Jan-18 02:33N 47°01' W 002°18'0 0.0
2017-Jan-18 01:33N 47°01' W 002°18'0 0.0
2017-Jan-18 00:33N 47°01' W 002°18'0 0.0
2017-Jan-17 23:33N 47°01' W 002°18'0 0.0
2017-Jan-17 22:33N 47°01' W 002°18'0 0.0
2017-Jan-17 21:33N 47°01' W 002°18'0 0.0
2017-Jan-17 20:33N 47°01' W 002°18'0 0.0
2017-Jan-17 19:33N 47°01' W 002°18'0 0.0
2017-Jan-17 18:33N 47°01' W 002°18'0 0.0
2017-Jan-17 17:33N 47°01' W 002°18'0 0.0
2017-Jan-17 16:32N 47°01' W 002°18'0 0.0
2017-Jan-17 15:17N 47°01' W 002°18'0 0.0
2017-Jan-17 14:06N 47°01' W 002°18'0 0.0
2017-Jan-17 13:31N 47°01' W 002°18'0 0.0
2017-Jan-17 12:30N 47°01' W 002°18'0 0.0
2017-Jan-17 11:33N 47°01' W 002°18'0 0.0
2017-Jan-17 10:32N 47°01' W 002°18'0 0.0
2017-Jan-17 09:33N 47°01' W 002°18'0 0.0
2017-Jan-17 08:33N 47°01' W 002°18'0 0.0
2017-Jan-17 07:33N 47°01' W 002°18'0 0.0
2017-Jan-17 06:31N 47°01' W 002°18'0 0.0
2017-Jan-17 05:33N 47°01' W 002°18'0 0.0
2017-Jan-17 04:32N 47°01' W 002°18'0 0.0
2017-Jan-17 03:32N 47°01' W 002°18'0 0.0
2017-Jan-17 02:33N 47°01' W 002°18'0 0.0
2017-Jan-17 01:33N 47°01' W 002°18'0 0.0
2017-Jan-17 00:31N 47°01' W 002°18'0 0.0
2017-Jan-16 23:28N 47°01' W 002°18'0 0.0
2017-Jan-16 22:33N 47°01' W 002°18'0 0.0
2017-Jan-16 21:33N 47°01' W 002°18'0 0.0
2017-Jan-16 20:33N 47°01' W 002°18'0 0.0
2017-Jan-16 19:33N 47°01' W 002°18'0 0.0
2017-Jan-16 18:33N 47°01' W 002°18'0 0.0
2017-Jan-16 17:33N 47°01' W 002°18'0 0.0
2017-Jan-16 16:33N 47°01' W 002°18'0 0.0
2017-Jan-16 15:33N 47°01' W 002°18'  

Dump ship's entire track history